Percy, Mississippi
Current Conditions -  °F | °C
As of 11:53 PM on Saturday 25 Oct 2014 (Local Time) from KGLH Reporting Station
Clear Clear  
Wind Chill: 64°   Ceiling: Unl
Heat Index: 64°   Visibility: 8mi
Dew Point: 62°   Wind: 3mph
Humidity: 93%   Direction: 200°SSW
Pressure: 30.04"   Gusts: NA
Location:  33.1785°N, 90.8086°W
Report Text: KGLH 260453Z AUTO 20003KT 8SM CLR 18/17 A3004 RMK AO2 SLP179 T01780167
Loading
Personal Weather Stations






























Interactive Weather Map
Tropical Storm Tracking
New forecast layout! Learn more

10-Day Weather Forecast

Advertisements
Track Severe Weather on mobile